Pasinler, Turkey
Current Conditions -  °F | °C
As of 7:20 AM on Monday 20 Oct 2014 (Local Time) from LTCE Reporting Station
Few Clouds Few Clouds  
Wind Chill: 28°   Ceiling: Unl
Heat Index: 28°   Visibility: 6mi
Dew Point: 23°   Wind: 3mph
Humidity: 80%   Direction: 30°NNE
Pressure: 30.12"   Gusts: NA
Location:  39.99°N, 41.69°E
Report Text: LTCE 200420Z 03003KT 330V130 9999 FEW030 M02/M05 Q1020 NOSIG
Loading
Personal Weather Stations






























Interactive Weather Map
Tropical Storm Tracking
New forecast layout! Learn more

10-Day Weather Forecast

Advertisements
Track Severe Weather on mobile